createdAt,value
2023-04-23T00:00:13.721Z,99013.81
2023-04-23T00:02:44.408Z,99007.66
2023-04-23T00:05:13.075Z,99002.28
2023-04-23T00:07:42.983Z,98994.72
2023-04-23T00:10:10.657Z,98986.81
2023-04-23T00:12:40.557Z,98985.19
2023-04-23T00:15:11.620Z,98978.84
2023-04-23T00:17:38.961Z,98981.47
2023-04-23T00:20:07.483Z,98977.41
2023-04-23T00:22:36.470Z,98981.31
2023-04-23T00:25:03.883Z,98982.63
2023-04-23T00:27:31.518Z,98981.75
2023-04-23T00:29:58.852Z,98983.50
2023-04-23T00:32:26.031Z,98984.69
2023-04-23T00:34:52.878Z,98987.44
2023-04-23T00:37:20.127Z,98980.78
2023-04-23T00:39:49.828Z,98982.06
2023-04-23T00:42:19.247Z,98991.78
2023-04-23T00:44:47.203Z,98986.53
2023-04-23T00:47:14.143Z,98985.13
2023-04-23T00:49:42.000Z,98979.09
2023-04-23T00:52:08.902Z,98981.78
2023-04-23T00:54:35.767Z,98987.13
2023-04-23T00:57:03.337Z,98995.84
2023-04-23T00:59:31.074Z,98992.91
2023-04-23T01:01:58.796Z,98992.75
2023-04-23T01:04:28.008Z,98986.38
2023-04-23T01:06:55.374Z,98991.88
2023-04-23T01:09:22.644Z,98992.72
2023-04-23T01:11:51.083Z,98994.81
2023-04-23T01:14:17.948Z,98999.03
2023-04-23T01:16:44.776Z,98987.34
2023-04-23T01:19:11.840Z,98992.84
2023-04-23T01:21:43.078Z,98988.31
2023-04-23T01:24:10.590Z,98995.44
2023-04-23T01:26:38.369Z,98983.75
2023-04-23T01:29:05.329Z,98991.56
2023-04-23T01:31:32.759Z,98991.22
2023-04-23T01:34:01.403Z,98995.28
2023-04-23T01:36:28.877Z,98997.06
2023-04-23T01:38:55.678Z,98999.16
2023-04-23T01:41:22.539Z,98995.78
2023-04-23T01:43:56.528Z,98998.78
2023-04-23T01:46:24.153Z,99000.88
2023-04-23T01:48:51.907Z,99001.34
2023-04-23T01:51:23.509Z,99006.41
2023-04-23T01:53:50.270Z,98998.59
2023-04-23T01:56:22.101Z,99002.09
2023-04-23T01:58:53.607Z,99003.16
2023-04-23T02:01:21.264Z,99002.66
2023-04-23T02:03:50.202Z,99006.97
2023-04-23T02:06:17.884Z,99011.41
2023-04-23T02:08:44.653Z,99005.44
2023-04-23T02:11:11.311Z,99006.16
2023-04-23T02:13:39.591Z,99001.75
2023-04-23T02:16:07.283Z,99008.16
2023-04-23T02:18:46.753Z,99008.97
2023-04-23T02:21:14.087Z,99004.75
2023-04-23T02:23:40.879Z,99006.78
2023-04-23T02:26:08.274Z,99005.50
2023-04-23T02:28:35.454Z,99005.63
2023-04-23T02:31:02.308Z,99013.22
2023-04-23T02:33:29.040Z,99014.97
2023-04-23T02:35:59.296Z,99004.97
2023-04-23T02:38:26.120Z,98999.25
2023-04-23T02:40:53.252Z,99004.63
2023-04-23T02:43:20.030Z,99002.06
2023-04-23T02:45:46.999Z,99009.19
2023-04-23T02:48:13.848Z,99000.31
2023-04-23T02:50:41.380Z,99000.19
2023-04-23T02:53:08.674Z,99005.56
2023-04-23T02:55:35.411Z,99002.31
2023-04-23T02:58:02.206Z,99006.03
2023-04-23T03:00:29.973Z,99004.97
2023-04-23T03:02:56.863Z,99005.31
2023-04-23T03:05:23.643Z,99004.75
2023-04-23T03:07:52.631Z,99006.97
2023-04-23T03:10:19.388Z,99002.44
2023-04-23T03:12:46.028Z,99006.03
2023-04-23T03:15:13.233Z,99002.78
2023-04-23T03:17:41.140Z,99007.88
2023-04-23T03:20:18.923Z,99009.88
2023-04-23T03:22:46.252Z,99009.50
2023-04-23T03:25:15.688Z,99021.97
2023-04-23T03:27:44.818Z,99029.88
2023-04-23T03:30:11.994Z,99020.78
2023-04-23T03:32:39.024Z,99027.53
2023-04-23T03:35:06.966Z,99022.84
2023-04-23T03:37:34.385Z,99028.09
2023-04-23T03:40:07.551Z,99022.75
2023-04-23T03:42:37.201Z,99033.53
2023-04-23T03:45:05.309Z,99036.09
2023-04-23T03:47:32.169Z,99030.38
2023-04-23T03:49:58.950Z,99031.16
2023-04-23T03:52:26.929Z,99033.75
2023-04-23T03:54:54.310Z,99035.47
2023-04-23T03:57:27.766Z,99036.63
2023-04-23T04:00:14.930Z,99028.59
2023-04-23T04:02:43.397Z,99035.31
2023-04-23T04:05:15.511Z,99048.44
2023-04-23T04:07:42.472Z,99032.06
2023-04-23T04:10:09.515Z,99036.81
2023-04-23T04:12:38.487Z,99038.66
2023-04-23T04:15:09.475Z,99040.16
2023-04-23T04:17:36.399Z,99041.84
2023-04-23T04:20:03.706Z,99045.03
2023-04-23T04:22:31.011Z,99047.78
2023-04-23T04:24:58.579Z,99051.50
2023-04-23T04:27:28.940Z,99043.28
2023-04-23T04:29:55.858Z,99045.72
2023-04-23T04:32:27.812Z,99036.69
2023-04-23T04:34:55.040Z,99039.34
2023-04-23T04:37:22.027Z,99044.69
2023-04-23T04:39:49.150Z,99041.47
2023-04-23T04:42:16.742Z,99033.69
2023-04-23T04:44:44.133Z,99035.44
2023-04-23T04:47:11.712Z,99043.47
2023-04-23T04:49:38.548Z,99028.94
2023-04-23T04:52:08.533Z,99028.94
2023-04-23T04:54:38.178Z,99035.53
2023-04-23T04:57:05.060Z,99035.06
2023-04-23T04:59:31.811Z,99033.44
2023-04-23T05:02:00.806Z,99025.81
2023-04-23T05:04:28.020Z,99024.97
2023-04-23T05:06:55.049Z,99024.38
2023-04-23T05:09:21.954Z,99023.94
2023-04-23T05:11:49.088Z,99024.75
2023-04-23T05:14:15.885Z,99022.22
2023-04-23T05:16:42.676Z,99020.72
2023-04-23T05:19:09.773Z,99018.72
2023-04-23T05:21:36.565Z,99024.44
2023-04-23T05:24:04.434Z,99018.16
2023-04-23T05:26:31.623Z,99021.47
2023-04-23T05:28:58.373Z,99015.19
2023-04-23T05:31:26.506Z,99025.06
2023-04-23T05:33:55.149Z,99025.66
2023-04-23T05:36:22.591Z,99026.59
2023-04-23T05:38:49.618Z,99018.34
2023-04-23T05:41:16.375Z,99026.50
2023-04-23T05:43:43.059Z,99021.97
2023-04-23T05:46:09.811Z,99021.84
2023-04-23T05:48:36.563Z,99023.94
2023-04-23T05:51:03.668Z,99023.59
2023-04-23T05:53:31.056Z,99030.44
2023-04-23T05:55:57.955Z,99031.28
2023-04-23T05:58:25.062Z,99028.38
2023-04-23T06:00:53.148Z,99038.38
2023-04-23T06:03:20.708Z,99043.75
2023-04-23T06:05:48.103Z,99047.69
2023-04-23T06:08:14.951Z,99058.06
2023-04-23T06:10:42.430Z,99054.09
2023-04-23T06:13:10.956Z,99061.78
2023-04-23T06:15:37.676Z,99049.63
2023-04-23T06:18:04.641Z,99059.41
2023-04-23T06:20:36.169Z,99056.84
2023-04-23T06:23:03.679Z,99059.34
2023-04-23T06:25:30.663Z,99063.81
2023-04-23T06:27:58.178Z,99054.00
2023-04-23T06:30:28.266Z,99070.38
2023-04-23T06:32:54.915Z,99075.88
2023-04-23T06:35:21.835Z,99077.63
2023-04-23T06:37:48.786Z,99072.84
2023-04-23T06:40:15.840Z,99080.88
2023-04-23T06:42:43.081Z,99082.72
2023-04-23T06:45:33.665Z,99084.59
2023-04-23T06:48:00.626Z,99075.91
2023-04-23T06:50:27.775Z,99067.72
2023-04-23T06:52:56.358Z,99082.16
2023-04-23T06:55:26.125Z,99083.53
2023-04-23T06:57:53.292Z,99072.94
2023-04-23T07:00:20.319Z,99080.47
2023-04-23T07:02:47.368Z,99092.88
2023-04-23T07:05:15.262Z,99118.38
2023-04-23T07:07:43.512Z,99130.75
2023-04-23T07:10:15.531Z,99116.91
2023-04-23T07:12:44.047Z,99129.13
2023-04-23T07:15:11.671Z,99149.72
2023-04-23T07:17:38.410Z,99129.28
2023-04-23T07:20:06.588Z,99167.50
2023-04-23T07:22:33.730Z,99185.06
2023-04-23T07:25:01.416Z,99184.22
2023-04-23T07:27:35.232Z,99194.75
2023-04-23T07:30:02.421Z,99190.25
2023-04-23T07:32:29.723Z,99206.28
2023-04-23T07:34:57.860Z,99218.47
2023-04-23T07:37:24.890Z,99219.06
2023-04-23T07:39:53.930Z,99215.25
2023-04-23T07:42:21.141Z,99218.88
2023-04-23T07:44:48.187Z,99223.41
2023-04-23T07:47:15.132Z,99231.16
2023-04-23T07:49:42.231Z,99234.78
2023-04-23T07:52:10.202Z,99242.09
2023-04-23T07:54:36.904Z,99254.09
2023-04-23T07:57:03.790Z,99263.41
2023-04-23T07:59:30.876Z,99271.56
2023-04-23T08:01:57.837Z,99272.19
2023-04-23T08:04:24.808Z,99281.97
2023-04-23T08:06:52.633Z,99276.38
2023-04-23T08:09:19.513Z,99277.34
2023-04-23T08:11:46.526Z,99287.53
2023-04-23T08:14:13.474Z,99275.13
2023-04-23T08:16:42.255Z,99274.13
2023-04-23T08:19:15.051Z,99268.50
2023-04-23T08:21:42.515Z,99274.56
2023-04-23T08:24:09.416Z,99278.44
2023-04-23T08:26:36.757Z,99271.38
2023-04-23T08:29:06.139Z,99264.41
2023-04-23T08:31:32.886Z,99262.31
2023-04-23T08:33:59.755Z,99279.91
2023-04-23T08:36:27.664Z,99264.66
2023-04-23T08:38:54.468Z,99286.59
2023-04-23T08:41:27.822Z,99312.41
2023-04-23T08:44:14.190Z,99299.28
2023-04-23T08:46:43.824Z,99300.78
2023-04-23T08:49:18.110Z,99274.28
2023-04-23T08:51:55.476Z,99282.59
2023-04-23T08:54:30.466Z,99292.16
2023-04-23T08:57:02.209Z,99307.16
2023-04-23T08:59:34.808Z,99304.16
2023-04-23T09:02:07.850Z,99307.41
2023-04-23T09:04:35.642Z,99318.81
2023-04-23T09:07:02.426Z,99302.63
2023-04-23T09:09:29.876Z,99301.47
2023-04-23T09:11:57.258Z,99288.56
2023-04-23T09:14:27.753Z,99290.06
2023-04-23T09:16:55.233Z,99302.84
2023-04-23T09:19:22.004Z,99278.66
2023-04-23T09:21:48.936Z,99278.13
2023-04-23T09:24:16.387Z,99278.66
2023-04-23T09:26:48.831Z,99276.88
2023-04-23T09:29:23.644Z,99281.50
2023-04-23T09:32:06.436Z,99272.09
2023-04-23T09:34:36.064Z,99268.84
2023-04-23T09:37:03.824Z,99262.50
2023-04-23T09:39:30.522Z,99269.00
2023-04-23T09:42:03.319Z,99280.94
2023-04-23T09:44:32.546Z,99271.97
2023-04-23T09:47:09.664Z,99282.78
2023-04-23T09:49:49.505Z,99280.78
2023-04-23T09:52:16.849Z,99274.69
2023-04-23T09:54:44.331Z,99275.78
2023-04-23T09:57:11.733Z,99268.16
2023-04-23T09:59:47.853Z,99265.81
2023-04-23T10:02:17.927Z,99280.75
2023-04-23T10:04:45.352Z,99284.38
2023-04-23T10:07:19.768Z,99262.78
2023-04-23T10:09:48.250Z,99255.19
2023-04-23T10:14:46.593Z,99271.44
2023-04-23T10:17:14.041Z,99276.28
2023-04-23T10:19:43.580Z,99273.31
2023-04-23T10:22:19.467Z,99269.78
2023-04-23T10:24:48.702Z,99265.44
2023-04-23T10:27:26.913Z,99250.63
2023-04-23T10:30:00.926Z,99274.34
2023-04-23T10:32:27.911Z,99268.84
2023-04-23T10:34:54.579Z,99274.03
2023-04-23T10:37:21.970Z,99282.53
2023-04-23T10:39:54.258Z,99272.25
2023-04-23T10:42:22.046Z,99267.81
2023-04-23T10:47:20.822Z,99252.41
2023-04-23T10:49:48.826Z,99254.28
2023-04-23T10:52:21.183Z,99259.47
2023-04-23T10:54:52.338Z,99257.53
2023-04-23T10:57:19.495Z,99265.22
2023-04-23T10:59:54.579Z,99262.06
2023-04-23T11:02:24.164Z,99266.47
2023-04-23T11:04:58.338Z,99257.53
2023-04-23T11:07:32.760Z,99248.34
2023-04-23T11:10:01.171Z,99244.34
2023-04-23T11:12:27.879Z,99253.28
2023-04-23T11:14:55.870Z,99251.16
2023-04-23T11:17:24.047Z,99254.91
2023-04-23T11:20:10.562Z,99253.91
2023-04-23T11:22:42.666Z,99268.69
2023-04-23T11:25:14.007Z,99274.66
2023-04-23T11:27:43.079Z,99266.09
2023-04-23T11:30:13.911Z,99262.78
2023-04-23T11:32:42.180Z,99262.38
2023-04-23T11:35:11.408Z,99261.09
2023-04-23T11:37:41.130Z,99245.59
2023-04-23T11:40:10.250Z,99248.06
2023-04-23T11:42:50.957Z,99249.13
2023-04-23T11:45:21.693Z,99254.94
2023-04-23T11:47:56.318Z,99248.84
2023-04-23T11:50:39.612Z,99238.88
2023-04-23T11:53:10.144Z,99237.25
2023-04-23T11:55:38.206Z,99225.75
2023-04-23T11:58:07.371Z,99213.56
2023-04-23T12:00:36.469Z,99183.91
2023-04-23T12:03:06.495Z,99156.00
2023-04-23T12:05:40.577Z,99128.66
2023-04-23T12:08:16.509Z,99130.06
2023-04-23T12:11:01.106Z,99088.88
2023-04-23T12:13:36.771Z,99058.31
2023-04-23T12:16:05.802Z,99061.00
2023-04-23T12:18:44.199Z,99085.94
2023-04-23T12:21:14.672Z,99104.53
2023-04-23T12:23:45.006Z,99070.28
2023-04-23T12:26:13.866Z,99063.28
2023-04-23T12:28:59.804Z,99054.63
2023-04-23T12:31:28.361Z,99039.22
2023-04-23T12:34:02.714Z,99064.06
2023-04-23T12:36:32.779Z,99084.81
2023-04-23T12:39:29.318Z,99119.19
2023-04-23T12:42:06.869Z,99136.25
2023-04-23T12:44:39.792Z,99156.88
2023-04-23T12:47:15.842Z,99161.00
2023-04-23T12:49:43.936Z,99174.13
2023-04-23T12:52:13.603Z,99169.50
2023-04-23T12:54:40.850Z,99170.75
2023-04-23T12:57:08.685Z,99177.38
2023-04-23T12:59:39.828Z,99207.03
2023-04-23T13:02:07.307Z,99202.34
2023-04-23T13:04:36.083Z,99205.97
2023-04-23T13:07:09.026Z,99226.25
2023-04-23T13:09:38.171Z,99211.75
2023-04-23T13:12:07.123Z,99206.13
2023-04-23T13:14:35.012Z,99212.06
2023-04-23T13:17:04.640Z,99239.97
2023-04-23T13:19:35.455Z,99241.16
2023-04-23T13:22:12.439Z,99238.69
2023-04-23T13:24:39.201Z,99237.34
2023-04-23T13:27:06.059Z,99226.25
2023-04-23T13:29:47.569Z,99237.09
2023-04-23T13:32:14.611Z,99215.69
2023-04-23T13:34:41.249Z,99225.63
2023-04-23T13:37:09.343Z,99210.97
2023-04-23T13:39:38.746Z,99214.78
2023-04-23T13:42:09.966Z,99206.19
2023-04-23T13:44:36.987Z,99206.75
2023-04-23T13:47:05.270Z,99206.06
2023-04-23T13:49:34.457Z,99202.53
2023-04-23T13:52:06.814Z,99189.44
2023-04-23T13:54:33.986Z,99187.47
2023-04-23T13:57:02.607Z,99183.38
2023-04-23T13:59:30.225Z,99179.53
2023-04-23T14:01:59.520Z,99175.97
2023-04-23T14:04:26.982Z,99169.44
2023-04-23T14:06:53.824Z,99167.06
2023-04-23T14:09:22.534Z,99151.75
2023-04-23T14:11:52.034Z,99165.84
2023-04-23T14:14:19.788Z,99162.81
2023-04-23T14:16:47.463Z,99157.25
2023-04-23T14:19:15.129Z,99147.94
2023-04-23T14:21:41.987Z,99161.63
2023-04-23T14:24:10.772Z,99159.75
2023-04-23T14:29:24.248Z,99149.84
2023-04-23T14:31:58.696Z,99141.13
2023-04-23T14:34:26.243Z,99140.06
2023-04-23T14:36:57.632Z,99123.78
2023-04-23T14:39:27.196Z,99127.97
2023-04-23T14:41:54.084Z,99122.59
2023-04-23T14:44:23.502Z,99114.31
2023-04-23T14:46:53.286Z,99116.56
2023-04-23T14:49:21.589Z,99110.13
2023-04-23T14:51:51.305Z,99113.94
2023-04-23T14:54:18.571Z,99103.91
2023-04-23T14:56:46.082Z,99108.00
2023-04-23T14:59:15.140Z,99094.50
2023-04-23T15:01:42.539Z,99099.88
2023-04-23T15:04:12.895Z,99089.53
2023-04-23T15:06:42.591Z,99092.69
2023-04-23T15:09:09.650Z,99104.81
2023-04-23T15:11:47.583Z,99095.38
2023-04-23T15:14:34.050Z,99088.03
2023-04-23T15:17:01.059Z,99087.53
2023-04-23T15:19:28.489Z,99075.47
2023-04-23T15:21:55.884Z,99062.16
2023-04-23T15:24:23.789Z,99071.31
2023-04-23T15:26:53.485Z,99059.53
2023-04-23T15:29:21.056Z,99062.97
2023-04-23T15:31:50.322Z,99052.53
2023-04-23T15:34:18.341Z,99057.41
2023-04-23T15:36:50.827Z,99069.47
2023-04-23T15:39:19.368Z,99067.81
2023-04-23T15:41:50.506Z,99073.41
2023-04-23T15:44:29.457Z,99072.66
2023-04-23T15:47:18.189Z,99070.97
2023-04-23T15:49:49.572Z,99068.66
2023-04-23T15:52:24.553Z,99056.88
2023-04-23T15:54:58.513Z,99070.78
2023-04-23T15:57:25.723Z,99079.72
2023-04-23T16:00:04.994Z,99081.34
2023-04-23T16:02:41.085Z,99080.81
2023-04-23T16:05:09.626Z,99081.34
2023-04-23T16:07:39.212Z,99066.50
2023-04-23T16:10:15.655Z,99075.69
2023-04-23T16:13:06.534Z,99060.28
2023-04-23T16:15:36.465Z,99064.06
2023-04-23T16:18:03.563Z,99064.88
2023-04-23T16:20:31.928Z,99065.69
2023-04-23T16:23:01.700Z,99057.25
2023-04-23T16:25:28.589Z,99048.34
2023-04-23T16:27:56.183Z,99045.31
2023-04-23T16:30:23.768Z,99011.13
2023-04-23T16:32:50.518Z,99009.97
2023-04-23T16:35:19.723Z,98981.22
2023-04-23T16:37:46.811Z,98973.31
2023-04-23T16:40:16.191Z,98964.75
2023-04-23T16:42:44.320Z,98966.41
2023-04-23T16:45:11.740Z,98954.34
2023-04-23T16:47:39.458Z,98942.50
2023-04-23T16:50:07.259Z,98934.97
2023-04-23T16:52:34.119Z,98914.47
2023-04-23T16:55:02.056Z,98900.19
2023-04-23T16:57:29.501Z,98889.38
2023-04-23T16:59:59.231Z,98889.66
2023-04-23T17:02:26.126Z,98881.78
2023-04-23T17:04:53.482Z,98885.25
2023-04-23T17:07:20.815Z,98878.78
2023-04-23T17:09:50.212Z,98877.22
2023-04-23T17:12:17.422Z,98876.97
2023-04-23T17:14:44.582Z,98884.47
2023-04-23T17:17:11.457Z,98903.88
2023-04-23T17:19:38.141Z,98900.16
2023-04-23T17:22:06.314Z,98914.38
2023-04-23T17:24:33.066Z,98919.31
2023-04-23T17:26:59.777Z,98926.56
2023-04-23T17:29:27.396Z,98920.66
2023-04-23T17:31:54.849Z,98932.75
2023-04-23T17:34:24.014Z,98927.84
2023-04-23T17:36:50.998Z,98923.84
2023-04-23T17:39:22.492Z,98919.50
2023-04-23T17:41:49.666Z,98918.41
2023-04-23T17:44:16.956Z,98917.81
2023-04-23T17:46:46.387Z,98917.84
2023-04-23T17:49:13.450Z,98919.16
2023-04-23T17:51:40.632Z,98920.25
2023-04-23T17:54:08.109Z,98922.44
2023-04-23T17:56:35.672Z,98924.28
2023-04-23T17:59:02.789Z,98920.97
2023-04-23T18:01:34.764Z,98925.00
2023-04-23T18:04:06.598Z,98922.69
2023-04-23T18:06:33.863Z,98906.97
2023-04-23T18:09:00.971Z,98902.56
2023-04-23T18:11:28.066Z,98911.22
2023-04-23T18:13:55.337Z,98902.00
2023-04-23T18:16:22.107Z,98902.28
2023-04-23T18:18:49.590Z,98906.84
2023-04-23T18:21:18.196Z,98896.81
2023-04-23T18:23:45.662Z,98918.72
2023-04-23T18:26:15.528Z,98927.84
2023-04-23T18:28:44.701Z,98915.44
2023-04-23T18:31:14.866Z,98905.53
2023-04-23T18:34:04.667Z,98883.56
2023-04-23T18:36:33.221Z,98887.69
2023-04-23T18:39:00.909Z,98886.13
2023-04-23T18:41:30.152Z,98890.06
2023-04-23T18:43:57.715Z,98891.91
2023-04-23T18:46:24.950Z,98870.09
2023-04-23T18:49:00.218Z,98837.56
2023-04-23T18:51:26.891Z,98820.97
2023-04-23T18:53:53.879Z,98800.44
2023-04-23T18:56:23.094Z,98805.09
2023-04-23T18:58:50.184Z,98791.22
2023-04-23T19:01:17.091Z,98785.25
2023-04-23T19:03:44.241Z,98789.00
2023-04-23T19:06:11.762Z,98786.25
2023-04-23T19:08:38.897Z,98777.69
2023-04-23T19:11:06.371Z,98788.94
2023-04-23T19:13:33.239Z,98786.75
2023-04-23T19:16:00.333Z,98783.25
2023-04-23T19:18:28.359Z,98776.56
2023-04-23T19:20:55.710Z,98778.53
2023-04-23T19:23:22.814Z,98784.97
2023-04-23T19:25:49.652Z,98796.88
2023-04-23T19:28:16.683Z,98780.16
2023-04-23T19:30:44.270Z,98776.63
2023-04-23T19:33:11.217Z,98768.69
2023-04-23T19:35:48.879Z,98763.84
2023-04-23T19:38:17.531Z,98765.56
2023-04-23T19:40:49.037Z,98760.34
2023-04-23T19:43:19.111Z,98740.28
2023-04-23T19:45:46.894Z,98742.13
2023-04-23T19:48:13.970Z,98729.91
2023-04-23T19:50:41.498Z,98740.81
2023-04-23T19:53:08.307Z,98746.72
2023-04-23T19:55:35.708Z,98766.13
2023-04-23T19:58:08.796Z,98757.84
2023-04-23T20:00:41.673Z,98769.16
2023-04-23T20:03:11.731Z,98757.88
2023-04-23T20:05:38.869Z,98739.59
2023-04-23T20:08:11.473Z,98726.09
2023-04-23T20:10:38.253Z,98706.63
2023-04-23T20:13:05.613Z,98680.59
2023-04-23T20:15:39.452Z,98665.88
2023-04-23T20:18:06.640Z,98645.78
2023-04-23T20:20:39.636Z,98627.75
2023-04-23T20:23:14.292Z,98606.34
2023-04-23T20:25:41.577Z,98585.41
2023-04-23T20:28:12.245Z,98558.63
2023-04-23T20:30:41.909Z,98538.53
2023-04-23T20:33:09.483Z,98514.69
2023-04-23T20:35:39.836Z,98499.63
2023-04-23T20:38:10.841Z,98486.97
2023-04-23T20:40:47.177Z,98465.81
2023-04-23T20:43:14.453Z,98450.31
2023-04-23T20:45:49.409Z,98427.00
2023-04-23T20:48:17.101Z,98419.34
2023-04-23T20:50:45.063Z,98416.94
2023-04-23T20:53:14.424Z,98414.00
2023-04-23T20:55:46.222Z,98404.34
2023-04-23T20:58:14.318Z,98393.59
2023-04-23T21:00:51.582Z,98397.66
2023-04-23T21:03:19.311Z,98385.00
2023-04-23T21:05:46.129Z,98384.50
2023-04-23T21:08:18.064Z,98370.06
2023-04-23T21:10:48.238Z,98364.06
2023-04-23T21:13:14.948Z,98356.72
2023-04-23T21:15:42.298Z,98354.59
2023-04-23T21:18:09.767Z,98339.38
2023-04-23T21:20:36.577Z,98343.47
2023-04-23T21:23:03.310Z,98340.44
2023-04-23T21:25:33.899Z,98341.72
2023-04-23T21:28:00.904Z,98338.94
2023-04-23T21:30:50.087Z,98333.88
2023-04-23T21:33:18.463Z,98344.97
2023-04-23T21:35:45.512Z,98336.75
2023-04-23T21:38:13.284Z,98336.41
2023-04-23T21:40:40.663Z,98332.91
2023-04-23T21:43:07.938Z,98321.19
2023-04-23T21:45:39.290Z,98312.94
2023-04-23T21:48:06.215Z,98313.28
2023-04-23T21:50:39.389Z,98315.94
2023-04-23T21:53:07.946Z,98310.28
2023-04-23T21:55:49.593Z,98314.91
2023-04-23T21:58:17.980Z,98305.53
2023-04-23T22:00:51.644Z,98300.66
2023-04-23T22:03:36.352Z,98296.84
2023-04-23T22:06:06.116Z,98302.00
2023-04-23T22:08:38.412Z,98296.28
2023-04-23T22:11:10.125Z,98302.97
2023-04-23T22:13:37.163Z,98304.97
2023-04-23T22:16:10.719Z,98292.97
2023-04-23T22:18:44.391Z,98286.88
2023-04-23T22:21:12.666Z,98285.72
2023-04-23T22:23:42.078Z,98288.13
2023-04-23T22:26:08.823Z,98277.91
2023-04-23T22:28:35.518Z,98280.38
2023-04-23T22:31:02.418Z,98271.88
2023-04-23T22:33:30.145Z,98267.50
2023-04-23T22:35:57.004Z,98276.53
2023-04-23T22:38:23.805Z,98274.06
2023-04-23T22:40:50.702Z,98267.84
2023-04-23T22:43:17.462Z,98259.78
2023-04-23T22:45:44.205Z,98247.25
2023-04-23T22:48:11.580Z,98249.72
2023-04-23T22:50:40.384Z,98256.19
2023-04-23T22:53:07.133Z,98253.88
2023-04-23T22:55:34.474Z,98265.25
2023-04-23T22:58:01.357Z,98270.44
2023-04-23T23:00:28.114Z,98274.75
2023-04-23T23:02:54.942Z,98273.31
2023-04-23T23:05:24.183Z,98278.66
2023-04-23T23:07:59.082Z,98279.63
2023-04-23T23:10:25.881Z,98282.84
2023-04-23T23:12:53.063Z,98279.81
2023-04-23T23:15:21.851Z,98282.22
2023-04-23T23:17:48.549Z,98295.28
2023-04-23T23:20:16.422Z,98271.78
2023-04-23T23:22:43.192Z,98264.22
2023-04-23T23:25:10.786Z,98258.53
2023-04-23T23:27:42.574Z,98263.72
2023-04-23T23:30:10.130Z,98267.13
2023-04-23T23:32:37.153Z,98261.09
2023-04-23T23:35:04.276Z,98259.47
2023-04-23T23:37:31.184Z,98264.78
2023-04-23T23:39:57.879Z,98275.88
2023-04-23T23:42:26.854Z,98267.84
2023-04-23T23:44:54.009Z,98273.75
2023-04-23T23:47:24.201Z,98279.13
2023-04-23T23:49:54.894Z,98276.94
2023-04-23T23:52:21.719Z,98280.94
2023-04-23T23:54:49.449Z,98273.03
2023-04-23T23:57:16.194Z,98271.25
2023-04-23T23:59:45.075Z,98282.06
